sensor_id;sensor_type;location;lat;lon;timestamp;P1;durP1;ratioP1;P2;durP2;ratioP2
3369;SDS011;42042;51.948;7.628;2023-01-28T00:02:24;7.88;;;7.25;;
3369;SDS011;42042;51.948;7.628;2023-01-28T00:04:51;8.13;;;7.43;;
3369;SDS011;42042;51.948;7.628;2023-01-28T00:07:19;7.82;;;7.13;;
3369;SDS011;42042;51.948;7.628;2023-01-28T00:09:46;8.27;;;7.57;;
3369;SDS011;42042;51.948;7.628;2023-01-28T00:12:13;7.70;;;7.10;;
3369;SDS011;42042;51.948;7.628;2023-01-28T00:14:41;8.77;;;7.63;;
3369;SDS011;42042;51.948;7.628;2023-01-28T00:17:11;8.82;;;7.35;;
3369;SDS011;42042;51.948;7.628;2023-01-28T00:19:39;8.73;;;7.93;;
3369;SDS011;42042;51.948;7.628;2023-01-28T00:22:06;9.32;;;8.52;;
3369;SDS011;42042;51.948;7.628;2023-01-28T00:24:33;9.70;;;8.60;;
3369;SDS011;42042;51.948;7.628;2023-01-28T00:27:00;9.10;;;8.30;;
3369;SDS011;42042;51.948;7.628;2023-01-28T00:29:27;8.57;;;7.88;;
3369;SDS011;42042;51.948;7.628;2023-01-28T00:31:55;9.23;;;8.32;;
3369;SDS011;42042;51.948;7.628;2023-01-28T00:34:23;9.45;;;8.07;;
3369;SDS011;42042;51.948;7.628;2023-01-28T00:36:50;9.88;;;7.65;;
3369;SDS011;42042;51.948;7.628;2023-01-28T00:39:21;10.57;;;8.35;;
3369;SDS011;42042;51.948;7.628;2023-01-28T00:41:49;7.45;;;6.82;;
3369;SDS011;42042;51.948;7.628;2023-01-28T00:44:16;7.97;;;7.18;;
3369;SDS011;42042;51.948;7.628;2023-01-28T00:46:43;8.15;;;7.55;;
3369;SDS011;42042;51.948;7.628;2023-01-28T00:49:10;8.68;;;7.88;;
3369;SDS011;42042;51.948;7.628;2023-01-28T00:51:39;9.20;;;8.40;;
3369;SDS011;42042;51.948;7.628;2023-01-28T00:54:06;10.45;;;8.55;;
3369;SDS011;42042;51.948;7.628;2023-01-28T00:56:33;9.90;;;9.05;;
3369;SDS011;42042;51.948;7.628;2023-01-28T00:59:01;9.30;;;8.40;;
3369;SDS011;42042;51.948;7.628;2023-01-28T01:01:29;12.55;;;8.95;;
3369;SDS011;42042;51.948;7.628;2023-01-28T01:03:56;9.43;;;8.63;;
3369;SDS011;42042;51.948;7.628;2023-01-28T01:06:26;10.82;;;9.50;;
3369;SDS011;42042;51.948;7.628;2023-01-28T01:08:55;9.45;;;8.43;;
3369;SDS011;42042;51.948;7.628;2023-01-28T01:11:22;10.02;;;9.13;;
3369;SDS011;42042;51.948;7.628;2023-01-28T01:13:50;11.18;;;10.07;;
3369;SDS011;42042;51.948;7.628;2023-01-28T01:16:19;10.07;;;8.85;;
3369;SDS011;42042;51.948;7.628;2023-01-28T01:18:46;9.18;;;7.63;;
3369;SDS011;42042;51.948;7.628;2023-01-28T01:21:14;9.32;;;8.32;;
3369;SDS011;42042;51.948;7.628;2023-01-28T01:23:41;7.43;;;6.82;;
3369;SDS011;42042;51.948;7.628;2023-01-28T01:26:10;6.97;;;6.38;;
3369;SDS011;42042;51.948;7.628;2023-01-28T01:28:37;7.72;;;7.07;;
3369;SDS011;42042;51.948;7.628;2023-01-28T01:31:05;9.32;;;8.32;;
3369;SDS011;42042;51.948;7.628;2023-01-28T01:33:33;7.82;;;7.18;;
3369;SDS011;42042;51.948;7.628;2023-01-28T01:36:00;6.90;;;6.35;;
3369;SDS011;42042;51.948;7.628;2023-01-28T01:38:27;6.05;;;5.55;;
3369;SDS011;42042;51.948;7.628;2023-01-28T01:40:55;7.47;;;6.88;;
3369;SDS011;42042;51.948;7.628;2023-01-28T01:43:25;8.90;;;6.97;;
3369;SDS011;42042;51.948;7.628;2023-01-28T01:45:52;7.00;;;6.32;;
3369;SDS011;42042;51.948;7.628;2023-01-28T01:48:22;10.63;;;7.45;;
3369;SDS011;42042;51.948;7.628;2023-01-28T01:50:51;8.38;;;7.57;;
3369;SDS011;42042;51.948;7.628;2023-01-28T01:53:21;7.68;;;6.97;;
3369;SDS011;42042;51.948;7.628;2023-01-28T01:55:49;7.20;;;6.50;;
3369;SDS011;42042;51.948;7.628;2023-01-28T01:58:18;6.85;;;6.25;;
3369;SDS011;42042;51.948;7.628;2023-01-28T02:00:48;6.90;;;6.30;;
3369;SDS011;42042;51.948;7.628;2023-01-28T02:03:16;7.53;;;6.80;;
3369;SDS011;42042;51.948;7.628;2023-01-28T02:05:45;9.30;;;7.40;;
3369;SDS011;42042;51.948;7.628;2023-01-28T02:08:12;7.75;;;6.95;;
3369;SDS011;42042;51.948;7.628;2023-01-28T02:10:51;8.38;;;6.57;;
3369;SDS011;42042;51.948;7.628;2023-01-28T02:13:18;7.15;;;6.40;;
3369;SDS011;42042;51.948;7.628;2023-01-28T02:15:47;6.10;;;5.60;;
3369;SDS011;42042;51.948;7.628;2023-01-28T02:18:16;7.10;;;6.25;;
3369;SDS011;42042;51.948;7.628;2023-01-28T02:20:48;7.70;;;6.70;;
3369;SDS011;42042;51.948;7.628;2023-01-28T02:23:32;7.22;;;6.53;;
3369;SDS011;42042;51.948;7.628;2023-01-28T02:26:09;8.23;;;7.43;;
3369;SDS011;42042;51.948;7.628;2023-01-28T02:28:45;7.03;;;6.53;;
3369;SDS011;42042;51.948;7.628;2023-01-28T02:31:14;6.78;;;6.18;;
3369;SDS011;42042;51.948;7.628;2023-01-28T02:33:42;6.82;;;6.28;;
3369;SDS011;42042;51.948;7.628;2023-01-28T02:36:13;8.35;;;7.50;;
3369;SDS011;42042;51.948;7.628;2023-01-28T02:38:45;6.70;;;6.00;;
3369;SDS011;42042;51.948;7.628;2023-01-28T02:41:14;7.80;;;6.90;;
3369;SDS011;42042;51.948;7.628;2023-01-28T02:43:45;8.88;;;7.10;;
3369;SDS011;42042;51.948;7.628;2023-01-28T02:46:16;7.45;;;6.85;;
3369;SDS011;42042;51.948;7.628;2023-01-28T02:49:02;10.63;;;6.60;;
3369;SDS011;42042;51.948;7.628;2023-01-28T02:51:32;6.93;;;6.43;;
3369;SDS011;42042;51.948;7.628;2023-01-28T02:54:05;7.38;;;6.57;;
3369;SDS011;42042;51.948;7.628;2023-01-28T02:56:35;8.30;;;7.40;;
3369;SDS011;42042;51.948;7.628;2023-01-28T02:59:06;7.38;;;6.45;;
3369;SDS011;42042;51.948;7.628;2023-01-28T03:01:51;8.25;;;6.72;;
3369;SDS011;42042;51.948;7.628;2023-01-28T03:04:22;6.40;;;5.90;;
3369;SDS011;42042;51.948;7.628;2023-01-28T03:06:52;7.03;;;6.50;;
3369;SDS011;42042;51.948;7.628;2023-01-28T03:09:20;6.80;;;6.30;;
3369;SDS011;42042;51.948;7.628;2023-01-28T03:11:49;7.15;;;6.55;;
3369;SDS011;42042;51.948;7.628;2023-01-28T03:14:37;6.45;;;5.95;;
3369;SDS011;42042;51.948;7.628;2023-01-28T03:17:23;7.20;;;6.60;;
3369;SDS011;42042;51.948;7.628;2023-01-28T03:20:09;6.53;;;6.03;;
3369;SDS011;42042;51.948;7.628;2023-01-28T03:22:56;6.90;;;6.40;;
3369;SDS011;42042;51.948;7.628;2023-01-28T03:25:42;10.25;;;6.78;;
3369;SDS011;42042;51.948;7.628;2023-01-28T03:28:28;7.13;;;6.53;;
3369;SDS011;42042;51.948;7.628;2023-01-28T03:31:15;7.13;;;6.53;;
3369;SDS011;42042;51.948;7.628;2023-01-28T03:34:01;7.80;;;7.05;;
3369;SDS011;42042;51.948;7.628;2023-01-28T03:36:47;9.45;;;8.75;;
3369;SDS011;42042;51.948;7.628;2023-01-28T03:39:15;7.10;;;6.35;;
3369;SDS011;42042;51.948;7.628;2023-01-28T03:41:54;6.57;;;6.18;;
3369;SDS011;42042;51.948;7.628;2023-01-28T03:44:21;7.05;;;6.45;;
3369;SDS011;42042;51.948;7.628;2023-01-28T03:47:08;10.93;;;7.85;;
3369;SDS011;42042;51.948;7.628;2023-01-28T03:49:36;7.88;;;7.28;;
3369;SDS011;42042;51.948;7.628;2023-01-28T03:52:03;8.10;;;7.30;;
3369;SDS011;42042;51.948;7.628;2023-01-28T03:54:31;8.45;;;7.63;;
3369;SDS011;42042;51.948;7.628;2023-01-28T03:56:58;6.82;;;6.30;;
3369;SDS011;42042;51.948;7.628;2023-01-28T03:59:25;7.00;;;6.40;;
3369;SDS011;42042;51.948;7.628;2023-01-28T04:01:52;9.90;;;7.65;;
3369;SDS011;42042;51.948;7.628;2023-01-28T04:04:21;8.40;;;7.70;;
3369;SDS011;42042;51.948;7.628;2023-01-28T04:06:49;8.50;;;7.80;;
3369;SDS011;42042;51.948;7.628;2023-01-28T04:09:16;7.55;;;6.95;;
3369;SDS011;42042;51.948;7.628;2023-01-28T04:11:43;7.88;;;7.28;;
3369;SDS011;42042;51.948;7.628;2023-01-28T04:14:11;7.35;;;6.75;;
3369;SDS011;42042;51.948;7.628;2023-01-28T04:16:39;9.38;;;7.00;;
3369;SDS011;42042;51.948;7.628;2023-01-28T04:19:06;7.50;;;7.00;;
3369;SDS011;42042;51.948;7.628;2023-01-28T04:21:35;11.52;;;7.30;;
3369;SDS011;42042;51.948;7.628;2023-01-28T04:24:02;8.18;;;7.38;;
3369;SDS011;42042;51.948;7.628;2023-01-28T04:26:29;7.55;;;6.95;;
3369;SDS011;42042;51.948;7.628;2023-01-28T04:28:56;7.82;;;7.10;;
3369;SDS011;42042;51.948;7.628;2023-01-28T04:31:24;8.20;;;7.28;;
3369;SDS011;42042;51.948;7.628;2023-01-28T04:33:51;8.30;;;7.30;;
3369;SDS011;42042;51.948;7.628;2023-01-28T04:36:18;7.43;;;6.72;;
3369;SDS011;42042;51.948;7.628;2023-01-28T04:38:46;7.65;;;7.05;;
3369;SDS011;42042;51.948;7.628;2023-01-28T04:41:14;7.50;;;6.43;;
3369;SDS011;42042;51.948;7.628;2023-01-28T04:43:41;8.32;;;5.90;;
3369;SDS011;42042;51.948;7.628;2023-01-28T04:46:08;6.80;;;5.95;;
3369;SDS011;42042;51.948;7.628;2023-01-28T04:48:35;6.25;;;5.75;;
3369;SDS011;42042;51.948;7.628;2023-01-28T04:51:03;6.60;;;5.78;;
3369;SDS011;42042;51.948;7.628;2023-01-28T04:53:30;11.90;;;6.93;;
3369;SDS011;42042;51.948;7.628;2023-01-28T04:55:59;5.82;;;5.35;;
3369;SDS011;42042;51.948;7.628;2023-01-28T04:58:26;6.70;;;6.20;;
3369;SDS011;42042;51.948;7.628;2023-01-28T05:00:54;7.20;;;6.65;;
3369;SDS011;42042;51.948;7.628;2023-01-28T05:03:21;6.95;;;6.30;;
3369;SDS011;42042;51.948;7.628;2023-01-28T05:05:49;7.45;;;6.85;;
3369;SDS011;42042;51.948;7.628;2023-01-28T05:08:16;6.95;;;6.45;;
3369;SDS011;42042;51.948;7.628;2023-01-28T05:10:43;6.95;;;6.45;;
3369;SDS011;42042;51.948;7.628;2023-01-28T05:13:12;7.28;;;6.70;;
3369;SDS011;42042;51.948;7.628;2023-01-28T05:15:39;8.20;;;7.53;;
3369;SDS011;42042;51.948;7.628;2023-01-28T05:18:06;7.72;;;6.85;;
3369;SDS011;42042;51.948;7.628;2023-01-28T05:20:33;9.15;;;7.43;;
3369;SDS011;42042;51.948;7.628;2023-01-28T05:23:01;7.05;;;6.45;;
3369;SDS011;42042;51.948;7.628;2023-01-28T05:25:28;7.15;;;6.65;;
3369;SDS011;42042;51.948;7.628;2023-01-28T05:27:55;8.70;;;7.93;;
3369;SDS011;42042;51.948;7.628;2023-01-28T05:30:24;8.32;;;7.47;;
3369;SDS011;42042;51.948;7.628;2023-01-28T05:32:53;7.15;;;6.55;;
3369;SDS011;42042;51.948;7.628;2023-01-28T05:35:21;7.38;;;6.63;;
3369;SDS011;42042;51.948;7.628;2023-01-28T05:37:48;8.85;;;6.00;;
3369;SDS011;42042;51.948;7.628;2023-01-28T05:40:15;7.45;;;6.85;;
3369;SDS011;42042;51.948;7.628;2023-01-28T05:42:43;7.70;;;7.10;;
3369;SDS011;42042;51.948;7.628;2023-01-28T05:45:10;6.47;;;5.88;;
3369;SDS011;42042;51.948;7.628;2023-01-28T05:47:39;7.50;;;6.80;;
3369;SDS011;42042;51.948;7.628;2023-01-28T05:50:06;8.02;;;6.75;;
3369;SDS011;42042;51.948;7.628;2023-01-28T05:52:34;5.85;;;5.45;;
3369;SDS011;42042;51.948;7.628;2023-01-28T05:55:01;7.95;;;6.13;;
3369;SDS011;42042;51.948;7.628;2023-01-28T05:57:28;6.93;;;6.32;;
3369;SDS011;42042;51.948;7.628;2023-01-28T05:59:56;6.97;;;6.38;;
3369;SDS011;42042;51.948;7.628;2023-01-28T06:02:23;7.28;;;6.68;;
3369;SDS011;42042;51.948;7.628;2023-01-28T06:04:52;8.30;;;6.75;;
3369;SDS011;42042;51.948;7.628;2023-01-28T06:07:19;9.13;;;6.40;;
3369;SDS011;42042;51.948;7.628;2023-01-28T06:09:48;7.30;;;6.55;;
3369;SDS011;42042;51.948;7.628;2023-01-28T06:12:15;6.60;;;6.00;;
3369;SDS011;42042;51.948;7.628;2023-01-28T06:14:42;6.07;;;5.57;;
3369;SDS011;42042;51.948;7.628;2023-01-28T06:17:09;8.27;;;7.40;;
3369;SDS011;42042;51.948;7.628;2023-01-28T06:19:36;8.27;;;5.85;;
3369;SDS011;42042;51.948;7.628;2023-01-28T06:22:05;6.95;;;6.25;;
3369;SDS011;42042;51.948;7.628;2023-01-28T06:24:32;7.57;;;6.20;;
3369;SDS011;42042;51.948;7.628;2023-01-28T06:26:59;8.02;;;6.30;;
3369;SDS011;42042;51.948;7.628;2023-01-28T06:29:27;6.25;;;5.75;;
3369;SDS011;42042;51.948;7.628;2023-01-28T06:31:54;6.68;;;6.07;;
3369;SDS011;42042;51.948;7.628;2023-01-28T06:34:21;7.70;;;6.40;;
3369;SDS011;42042;51.948;7.628;2023-01-28T06:36:48;6.90;;;6.30;;
3369;SDS011;42042;51.948;7.628;2023-01-28T06:39:18;7.15;;;6.45;;
3369;SDS011;42042;51.948;7.628;2023-01-28T06:41:46;6.72;;;6.22;;
3369;SDS011;42042;51.948;7.628;2023-01-28T06:44:14;7.75;;;6.63;;
3369;SDS011;42042;51.948;7.628;2023-01-28T06:46:41;7.72;;;6.40;;
3369;SDS011;42042;51.948;7.628;2023-01-28T06:49:08;6.28;;;5.78;;
3369;SDS011;42042;51.948;7.628;2023-01-28T06:51:35;8.63;;;7.00;;
3369;SDS011;42042;51.948;7.628;2023-01-28T06:54:02;11.13;;;7.72;;
3369;SDS011;42042;51.948;7.628;2023-01-28T06:56:31;8.15;;;7.18;;
3369;SDS011;42042;51.948;7.628;2023-01-28T06:58:59;7.28;;;6.68;;
3369;SDS011;42042;51.948;7.628;2023-01-28T07:01:26;7.38;;;6.68;;
3369;SDS011;42042;51.948;7.628;2023-01-28T07:03:53;10.27;;;8.50;;
3369;SDS011;42042;51.948;7.628;2023-01-28T07:06:21;6.68;;;6.00;;
3369;SDS011;42042;51.948;7.628;2023-01-28T07:08:49;7.07;;;6.47;;
3369;SDS011;42042;51.948;7.628;2023-01-28T07:11:16;7.50;;;6.80;;
3369;SDS011;42042;51.948;7.628;2023-01-28T07:13:44;7.80;;;7.00;;
3369;SDS011;42042;51.948;7.628;2023-01-28T07:16:12;15.57;;;6.20;;
3369;SDS011;42042;51.948;7.628;2023-01-28T07:18:39;7.07;;;6.47;;
3369;SDS011;42042;51.948;7.628;2023-01-28T07:21:06;7.07;;;6.38;;
3369;SDS011;42042;51.948;7.628;2023-01-28T07:23:34;8.50;;;7.70;;
3369;SDS011;42042;51.948;7.628;2023-01-28T07:26:01;8.20;;;6.07;;
3369;SDS011;42042;51.948;7.628;2023-01-28T07:28:29;7.53;;;6.72;;
3369;SDS011;42042;51.948;7.628;2023-01-28T07:30:57;7.32;;;6.72;;
3369;SDS011;42042;51.948;7.628;2023-01-28T07:33:24;7.18;;;6.60;;
3369;SDS011;42042;51.948;7.628;2023-01-28T07:35:52;7.68;;;6.97;;
3369;SDS011;42042;51.948;7.628;2023-01-28T07:38:19;8.25;;;7.55;;
3369;SDS011;42042;51.948;7.628;2023-01-28T07:40:46;8.95;;;6.72;;
3369;SDS011;42042;51.948;7.628;2023-01-28T07:43:14;7.80;;;7.00;;
3369;SDS011;42042;51.948;7.628;2023-01-28T07:45:41;7.72;;;7.07;;
3369;SDS011;42042;51.948;7.628;2023-01-28T07:48:10;8.52;;;6.38;;
3369;SDS011;42042;51.948;7.628;2023-01-28T07:50:37;7.53;;;6.80;;
3369;SDS011;42042;51.948;7.628;2023-01-28T07:53:05;8.57;;;7.05;;
3369;SDS011;42042;51.948;7.628;2023-01-28T07:55:33;7.15;;;6.53;;
3369;SDS011;42042;51.948;7.628;2023-01-28T07:58:01;9.10;;;8.18;;
3369;SDS011;42042;51.948;7.628;2023-01-28T08:00:29;7.47;;;6.82;;
3369;SDS011;42042;51.948;7.628;2023-01-28T08:02:57;7.75;;;7.03;;
3369;SDS011;42042;51.948;7.628;2023-01-28T08:05:27;8.00;;;7.30;;
3369;SDS011;42042;51.948;7.628;2023-01-28T08:07:56;10.93;;;7.22;;
3369;SDS011;42042;51.948;7.628;2023-01-28T08:10:23;8.43;;;6.95;;
3369;SDS011;42042;51.948;7.628;2023-01-28T08:12:51;8.27;;;7.28;;
3369;SDS011;42042;51.948;7.628;2023-01-28T08:15:19;10.40;;;9.40;;
3369;SDS011;42042;51.948;7.628;2023-01-28T08:17:46;7.35;;;6.70;;
3369;SDS011;42042;51.948;7.628;2023-01-28T08:20:13;7.78;;;6.80;;
3369;SDS011;42042;51.948;7.628;2023-01-28T08:22:42;6.72;;;6.10;;
3369;SDS011;42042;51.948;7.628;2023-01-28T08:25:09;8.35;;;7.55;;
3369;SDS011;42042;51.948;7.628;2023-01-28T08:27:36;7.57;;;6.93;;
3369;SDS011;42042;51.948;7.628;2023-01-28T08:30:04;9.35;;;7.20;;
3369;SDS011;42042;51.948;7.628;2023-01-28T08:32:31;10.63;;;7.57;;
3369;SDS011;42042;51.948;7.628;2023-01-28T08:34:58;9.98;;;7.05;;
3369;SDS011;42042;51.948;7.628;2023-01-28T08:37:26;7.63;;;6.93;;
3369;SDS011;42042;51.948;7.628;2023-01-28T08:39:54;7.97;;;7.28;;
3369;SDS011;42042;51.948;7.628;2023-01-28T08:42:21;10.25;;;7.65;;
3369;SDS011;42042;51.948;7.628;2023-01-28T08:44:48;7.50;;;6.70;;
3369;SDS011;42042;51.948;7.628;2023-01-28T08:47:16;10.18;;;7.28;;
3369;SDS011;42042;51.948;7.628;2023-01-28T08:49:43;7.38;;;6.63;;
3369;SDS011;42042;51.948;7.628;2023-01-28T08:52:10;13.10;;;8.43;;
3369;SDS011;42042;51.948;7.628;2023-01-28T08:54:37;9.07;;;8.18;;
3369;SDS011;42042;51.948;7.628;2023-01-28T08:57:06;8.45;;;7.65;;
3369;SDS011;42042;51.948;7.628;2023-01-28T08:59:33;10.75;;;8.32;;
3369;SDS011;42042;51.948;7.628;2023-01-28T09:02:00;9.00;;;7.63;;
3369;SDS011;42042;51.948;7.628;2023-01-28T09:04:27;9.60;;;8.70;;
3369;SDS011;42042;51.948;7.628;2023-01-28T09:06:54;10.55;;;9.52;;
3369;SDS011;42042;51.948;7.628;2023-01-28T09:09:21;12.80;;;11.02;;
3369;SDS011;42042;51.948;7.628;2023-01-28T09:11:49;11.85;;;10.65;;
3369;SDS011;42042;51.948;7.628;2023-01-28T09:14:17;9.75;;;8.85;;
3369;SDS011;42042;51.948;7.628;2023-01-28T09:16:44;13.25;;;10.00;;
3369;SDS011;42042;51.948;7.628;2023-01-28T09:19:12;20.02;;;10.43;;
3369;SDS011;42042;51.948;7.628;2023-01-28T09:21:39;11.75;;;9.77;;
3369;SDS011;42042;51.948;7.628;2023-01-28T09:24:09;13.63;;;11.07;;
3369;SDS011;42042;51.948;7.628;2023-01-28T09:26:36;13.15;;;11.57;;
3369;SDS011;42042;51.948;7.628;2023-01-28T09:29:04;13.93;;;11.77;;
3369;SDS011;42042;51.948;7.628;2023-01-28T09:31:32;14.82;;;11.98;;
3369;SDS011;42042;51.948;7.628;2023-01-28T09:33:59;17.55;;;14.02;;
3369;SDS011;42042;51.948;7.628;2023-01-28T09:36:28;16.67;;;13.65;;
3369;SDS011;42042;51.948;7.628;2023-01-28T09:38:55;17.23;;;12.57;;
3369;SDS011;42042;51.948;7.628;2023-01-28T09:41:23;16.85;;;12.93;;
3369;SDS011;42042;51.948;7.628;2023-01-28T09:44:04;17.38;;;13.73;;
3369;SDS011;42042;51.948;7.628;2023-01-28T09:46:35;17.85;;;13.00;;
3369;SDS011;42042;51.948;7.628;2023-01-28T09:49:04;15.40;;;12.85;;
3369;SDS011;42042;51.948;7.628;2023-01-28T09:51:33;17.92;;;13.82;;
3369;SDS011;42042;51.948;7.628;2023-01-28T09:54:03;15.32;;;12.07;;
3369;SDS011;42042;51.948;7.628;2023-01-28T09:56:33;14.27;;;12.73;;
3369;SDS011;42042;51.948;7.628;2023-01-28T09:59:06;17.38;;;12.90;;
3369;SDS011;42042;51.948;7.628;2023-01-28T10:01:41;16.88;;;13.00;;
3369;SDS011;42042;51.948;7.628;2023-01-28T10:04:15;16.50;;;12.57;;
3369;SDS011;42042;51.948;7.628;2023-01-28T10:06:48;19.08;;;14.20;;
3369;SDS011;42042;51.948;7.628;2023-01-28T10:09:23;17.85;;;12.95;;
3369;SDS011;42042;51.948;7.628;2023-01-28T10:11:55;17.30;;;13.85;;
3369;SDS011;42042;51.948;7.628;2023-01-28T10:14:31;14.52;;;12.88;;
3369;SDS011;42042;51.948;7.628;2023-01-28T10:17:03;14.05;;;12.38;;
3369;SDS011;42042;51.948;7.628;2023-01-28T10:19:34;16.55;;;14.20;;
3369;SDS011;42042;51.948;7.628;2023-01-28T10:22:04;17.60;;;14.25;;
3369;SDS011;42042;51.948;7.628;2023-01-28T10:24:33;19.27;;;13.65;;
3369;SDS011;42042;51.948;7.628;2023-01-28T10:27:00;15.50;;;13.77;;
3369;SDS011;42042;51.948;7.628;2023-01-28T10:29:30;18.65;;;13.90;;
3369;SDS011;42042;51.948;7.628;2023-01-28T10:32:00;22.33;;;13.77;;
3369;SDS011;42042;51.948;7.628;2023-01-28T10:34:31;16.30;;;13.48;;
3369;SDS011;42042;51.948;7.628;2023-01-28T10:36:59;21.70;;;16.05;;
3369;SDS011;42042;51.948;7.628;2023-01-28T10:39:26;18.15;;;14.68;;
3369;SDS011;42042;51.948;7.628;2023-01-28T10:41:54;24.23;;;14.48;;
3369;SDS011;42042;51.948;7.628;2023-01-28T10:44:24;17.50;;;13.05;;
3369;SDS011;42042;51.948;7.628;2023-01-28T10:46:53;18.52;;;13.93;;
3369;SDS011;42042;51.948;7.628;2023-01-28T10:49:23;21.05;;;15.02;;
3369;SDS011;42042;51.948;7.628;2023-01-28T10:51:54;19.40;;;14.18;;
3369;SDS011;42042;51.948;7.628;2023-01-28T10:54:22;18.85;;;13.55;;
3369;SDS011;42042;51.948;7.628;2023-01-28T10:56:51;24.70;;;15.68;;
3369;SDS011;42042;51.948;7.628;2023-01-28T10:59:20;23.23;;;17.73;;
3369;SDS011;42042;51.948;7.628;2023-01-28T11:01:48;22.05;;;16.27;;
3369;SDS011;42042;51.948;7.628;2023-01-28T11:04:16;25.55;;;16.70;;
3369;SDS011;42042;51.948;7.628;2023-01-28T11:06:56;22.63;;;15.20;;
3369;SDS011;42042;51.948;7.628;2023-01-28T11:09:25;24.48;;;16.67;;
3369;SDS011;42042;51.948;7.628;2023-01-28T11:11:52;24.27;;;17.05;;
3369;SDS011;42042;51.948;7.628;2023-01-28T11:14:23;20.63;;;14.55;;
3369;SDS011;42042;51.948;7.628;2023-01-28T11:16:50;22.65;;;16.40;;
3369;SDS011;42042;51.948;7.628;2023-01-28T11:19:18;26.67;;;17.92;;
3369;SDS011;42042;51.948;7.628;2023-01-28T11:21:49;24.00;;;15.82;;
3369;SDS011;42042;51.948;7.628;2023-01-28T11:24:21;21.45;;;15.45;;
3369;SDS011;42042;51.948;7.628;2023-01-28T11:26:50;20.90;;;14.80;;
3369;SDS011;42042;51.948;7.628;2023-01-28T11:29:22;21.80;;;15.60;;
3369;SDS011;42042;51.948;7.628;2023-01-28T11:31:50;23.30;;;16.33;;
3369;SDS011;42042;51.948;7.628;2023-01-28T11:34:18;23.45;;;15.13;;
3369;SDS011;42042;51.948;7.628;2023-01-28T11:36:49;19.90;;;14.75;;
3369;SDS011;42042;51.948;7.628;2023-01-28T11:39:17;17.00;;;13.80;;
3369;SDS011;42042;51.948;7.628;2023-01-28T11:41:47;20.33;;;14.90;;
3369;SDS011;42042;51.948;7.628;2023-01-28T11:44:15;20.13;;;15.55;;
3369;SDS011;42042;51.948;7.628;2023-01-28T11:49:30;18.90;;;13.93;;
3369;SDS011;42042;51.948;7.628;2023-01-28T11:52:00;20.98;;;15.32;;
3369;SDS011;42042;51.948;7.628;2023-01-28T11:54:34;20.92;;;14.95;;
3369;SDS011;42042;51.948;7.628;2023-01-28T11:57:09;22.40;;;15.45;;
3369;SDS011;42042;51.948;7.628;2023-01-28T11:59:49;21.08;;;15.25;;
3369;SDS011;42042;51.948;7.628;2023-01-28T12:02:25;23.92;;;16.25;;
3369;SDS011;42042;51.948;7.628;2023-01-28T12:05:01;20.65;;;14.70;;
3369;SDS011;42042;51.948;7.628;2023-01-28T12:07:34;17.63;;;13.77;;
3369;SDS011;42042;51.948;7.628;2023-01-28T12:10:05;20.65;;;14.10;;
3369;SDS011;42042;51.948;7.628;2023-01-28T12:12:50;19.52;;;13.75;;
3369;SDS011;42042;51.948;7.628;2023-01-28T12:15:23;20.75;;;14.18;;
3369;SDS011;42042;51.948;7.628;2023-01-28T12:17:59;20.15;;;14.25;;
3369;SDS011;42042;51.948;7.628;2023-01-28T12:20:30;19.63;;;14.02;;
3369;SDS011;42042;51.948;7.628;2023-01-28T12:25:55;19.00;;;13.23;;
3369;SDS011;42042;51.948;7.628;2023-01-28T12:28:28;22.50;;;12.95;;
3369;SDS011;42042;51.948;7.628;2023-01-28T12:31:04;20.20;;;13.40;;
3369;SDS011;42042;51.948;7.628;2023-01-28T12:33:48;20.70;;;14.45;;
3369;SDS011;42042;51.948;7.628;2023-01-28T12:36:24;18.52;;;13.50;;
3369;SDS011;42042;51.948;7.628;2023-01-28T12:38:56;16.15;;;12.20;;
3369;SDS011;42042;51.948;7.628;2023-01-28T12:41:28;15.52;;;12.70;;
3369;SDS011;42042;51.948;7.628;2023-01-28T12:43:59;18.65;;;12.02;;
3369;SDS011;42042;51.948;7.628;2023-01-28T12:46:29;21.75;;;12.30;;
3369;SDS011;42042;51.948;7.628;2023-01-28T12:48:59;17.58;;;13.30;;
3369;SDS011;42042;51.948;7.628;2023-01-28T12:51:31;17.15;;;11.60;;
3369;SDS011;42042;51.948;7.628;2023-01-28T12:54:00;18.85;;;12.70;;
3369;SDS011;42042;51.948;7.628;2023-01-28T12:56:30;16.42;;;12.88;;
3369;SDS011;42042;51.948;7.628;2023-01-28T12:59:01;17.20;;;13.13;;
3369;SDS011;42042;51.948;7.628;2023-01-28T13:01:31;17.73;;;12.80;;
3369;SDS011;42042;51.948;7.628;2023-01-28T13:04:03;18.33;;;12.80;;
3369;SDS011;42042;51.948;7.628;2023-01-28T13:06:33;17.55;;;12.32;;
3369;SDS011;42042;51.948;7.628;2023-01-28T13:09:09;17.38;;;12.70;;
3369;SDS011;42042;51.948;7.628;2023-01-28T13:11:37;18.83;;;11.73;;
3369;SDS011;42042;51.948;7.628;2023-01-28T13:14:06;18.40;;;12.13;;
3369;SDS011;42042;51.948;7.628;2023-01-28T13:16:33;16.02;;;12.50;;
3369;SDS011;42042;51.948;7.628;2023-01-28T13:19:04;17.92;;;12.63;;
3369;SDS011;42042;51.948;7.628;2023-01-28T13:21:32;16.58;;;11.77;;
3369;SDS011;42042;51.948;7.628;2023-01-28T13:24:04;18.25;;;11.88;;
3369;SDS011;42042;51.948;7.628;2023-01-28T13:26:41;20.20;;;12.18;;
3369;SDS011;42042;51.948;7.628;2023-01-28T13:31:42;15.98;;;11.52;;
3369;SDS011;42042;51.948;7.628;2023-01-28T13:34:24;20.33;;;12.50;;
3369;SDS011;42042;51.948;7.628;2023-01-28T13:36:53;15.07;;;11.18;;
3369;SDS011;42042;51.948;7.628;2023-01-28T13:39:21;22.55;;;13.70;;
3369;SDS011;42042;51.948;7.628;2023-01-28T13:41:50;15.82;;;12.18;;
3369;SDS011;42042;51.948;7.628;2023-01-28T13:44:18;15.65;;;11.43;;
3369;SDS011;42042;51.948;7.628;2023-01-28T13:46:48;17.35;;;12.70;;
3369;SDS011;42042;51.948;7.628;2023-01-28T13:49:16;19.40;;;12.00;;
3369;SDS011;42042;51.948;7.628;2023-01-28T13:51:49;16.05;;;11.65;;
3369;SDS011;42042;51.948;7.628;2023-01-28T13:54:19;16.00;;;11.55;;
3369;SDS011;42042;51.948;7.628;2023-01-28T13:56:51;14.43;;;12.07;;
3369;SDS011;42042;51.948;7.628;2023-01-28T13:59:29;17.45;;;13.48;;
3369;SDS011;42042;51.948;7.628;2023-01-28T14:04:47;18.38;;;12.15;;
3369;SDS011;42042;51.948;7.628;2023-01-28T14:07:24;16.92;;;11.75;;
3369;SDS011;42042;51.948;7.628;2023-01-28T14:10:03;17.58;;;11.88;;
3369;SDS011;42042;51.948;7.628;2023-01-28T14:17:58;16.65;;;10.70;;
3369;SDS011;42042;51.948;7.628;2023-01-28T14:20:27;15.25;;;10.80;;
3369;SDS011;42042;51.948;7.628;2023-01-28T14:22:57;15.23;;;11.25;;
3369;SDS011;42042;51.948;7.628;2023-01-28T14:25:26;17.65;;;11.45;;
3369;SDS011;42042;51.948;7.628;2023-01-28T14:27:55;18.35;;;10.98;;
3369;SDS011;42042;51.948;7.628;2023-01-28T14:30:23;20.13;;;11.38;;
3369;SDS011;42042;51.948;7.628;2023-01-28T14:32:52;13.82;;;10.73;;
3369;SDS011;42042;51.948;7.628;2023-01-28T14:35:22;13.93;;;10.23;;
3369;SDS011;42042;51.948;7.628;2023-01-28T14:37:52;15.45;;;10.40;;
3369;SDS011;42042;51.948;7.628;2023-01-28T14:40:19;14.07;;;10.88;;
3369;SDS011;42042;51.948;7.628;2023-01-28T14:42:47;13.60;;;10.95;;
3369;SDS011;42042;51.948;7.628;2023-01-28T14:45:22;15.48;;;11.30;;
3369;SDS011;42042;51.948;7.628;2023-01-28T14:47:55;18.35;;;12.13;;
3369;SDS011;42042;51.948;7.628;2023-01-28T14:50:36;15.98;;;10.90;;
3369;SDS011;42042;51.948;7.628;2023-01-28T14:53:20;18.05;;;12.57;;
3369;SDS011;42042;51.948;7.628;2023-01-28T14:55:51;18.20;;;12.45;;
3369;SDS011;42042;51.948;7.628;2023-01-28T14:58:21;13.43;;;10.05;;
3369;SDS011;42042;51.948;7.628;2023-01-28T15:00:51;19.15;;;12.20;;
3369;SDS011;42042;51.948;7.628;2023-01-28T15:03:19;17.33;;;12.90;;
3369;SDS011;42042;51.948;7.628;2023-01-28T15:05:46;18.35;;;12.75;;
3369;SDS011;42042;51.948;7.628;2023-01-28T15:08:21;14.70;;;12.20;;
3369;SDS011;42042;51.948;7.628;2023-01-28T15:10:49;19.92;;;11.32;;
3369;SDS011;42042;51.948;7.628;2023-01-28T15:13:19;17.27;;;13.63;;
3369;SDS011;42042;51.948;7.628;2023-01-28T15:15:49;20.50;;;12.80;;
3369;SDS011;42042;51.948;7.628;2023-01-28T15:18:23;20.67;;;12.80;;
3369;SDS011;42042;51.948;7.628;2023-01-28T15:20:53;21.95;;;13.05;;
3369;SDS011;42042;51.948;7.628;2023-01-28T15:23:25;15.98;;;11.75;;